createdAt,value
2022-07-28T00:00:18.906Z,82.00
2022-07-28T00:02:48.618Z,82.20
2022-07-28T00:05:16.953Z,82.80
2022-07-28T00:07:45.469Z,82.60
2022-07-28T00:10:14.169Z,83.10
2022-07-28T00:12:42.408Z,83.20
2022-07-28T00:15:11.955Z,83.40
2022-07-28T00:17:40.223Z,83.40
2022-07-28T00:20:11.948Z,83.20
2022-07-28T00:22:43.435Z,83.70
2022-07-28T00:25:12.079Z,83.90
2022-07-28T00:27:40.656Z,84.20
2022-07-28T00:30:10.157Z,84.90
2022-07-28T00:32:39.228Z,84.90
2022-07-28T00:35:08.843Z,84.90
2022-07-28T00:37:39.710Z,85.00
2022-07-28T00:40:09.910Z,85.00
2022-07-28T00:42:38.401Z,84.90
2022-07-28T00:45:08.227Z,85.40
2022-07-28T00:47:36.491Z,85.30
2022-07-28T00:50:05.708Z,85.60
2022-07-28T00:52:35.160Z,85.80
2022-07-28T00:55:06.904Z,85.70
2022-07-28T00:57:35.706Z,86.40
2022-07-28T01:00:05.020Z,85.70
2022-07-28T01:02:33.446Z,85.60
2022-07-28T01:05:01.819Z,85.50
2022-07-28T01:07:38.534Z,86.10
2022-07-28T01:10:14.823Z,86.10
2022-07-28T01:12:52.007Z,86.20
2022-07-28T01:15:26.599Z,86.50
2022-07-28T01:18:03.736Z,86.70
2022-07-28T01:20:36.853Z,87.00
2022-07-28T01:23:28.424Z,87.30
2022-07-28T01:26:14.275Z,87.20
2022-07-28T01:28:59.308Z,87.10
2022-07-28T01:31:33.442Z,88.10
2022-07-28T01:34:09.375Z,88.70
2022-07-28T01:36:41.792Z,88.90
2022-07-28T01:39:11.235Z,88.80
2022-07-28T01:41:41.856Z,90.00
2022-07-28T01:44:15.852Z,89.80
2022-07-28T01:46:47.571Z,90.10
2022-07-28T01:49:17.905Z,90.30
2022-07-28T01:51:47.962Z,90.90
2022-07-28T01:54:20.261Z,90.80
2022-07-28T01:56:50.523Z,90.90
2022-07-28T01:59:20.749Z,91.00
2022-07-28T02:01:52.575Z,91.10
2022-07-28T02:04:24.190Z,91.00
2022-07-28T02:06:54.328Z,91.20
2022-07-28T02:09:24.743Z,91.10
2022-07-28T02:11:55.531Z,91.10
2022-07-28T02:14:28.715Z,91.30
2022-07-28T02:17:03.464Z,91.50
2022-07-28T02:19:33.110Z,91.50
2022-07-28T02:22:03.624Z,91.40
2022-07-28T02:24:33.418Z,91.60
2022-07-28T02:27:07.056Z,91.50
2022-07-28T02:29:51.853Z,91.80
2022-07-28T02:32:33.174Z,91.90
2022-07-28T02:35:09.367Z,91.90
2022-07-28T02:37:41.112Z,92.10
2022-07-28T02:40:14.841Z,92.30
2022-07-28T02:42:45.401Z,92.20
2022-07-28T02:45:16.663Z,92.30
2022-07-28T02:47:51.268Z,92.50
2022-07-28T02:50:25.619Z,92.70
2022-07-28T02:52:56.544Z,93.30
2022-07-28T02:55:25.794Z,93.00
2022-07-28T02:57:56.979Z,93.20
2022-07-28T03:00:26.638Z,93.30
2022-07-28T03:02:57.517Z,93.60
2022-07-28T03:05:26.193Z,93.80
2022-07-28T03:07:54.835Z,94.00
2022-07-28T03:10:33.591Z,94.60
2022-07-28T03:13:03.855Z,95.30
2022-07-28T03:15:32.282Z,94.90
2022-07-28T03:18:02.128Z,94.70
2022-07-28T03:20:30.942Z,95.10
2022-07-28T03:22:59.717Z,95.20
2022-07-28T03:25:33.622Z,95.30
2022-07-28T03:28:03.491Z,95.20
2022-07-28T03:30:40.722Z,95.50
2022-07-28T03:33:10.806Z,95.70
2022-07-28T03:35:41.680Z,95.70
2022-07-28T03:38:14.642Z,96.00
2022-07-28T03:40:47.655Z,96.00
2022-07-28T03:43:17.683Z,96.40
2022-07-28T03:45:47.955Z,96.90
2022-07-28T03:48:18.057Z,97.30
2022-07-28T03:50:46.287Z,97.90
2022-07-28T03:53:21.290Z,98.30
2022-07-28T03:55:51.149Z,98.70
2022-07-28T03:58:20.140Z,99.90
2022-07-28T04:00:49.451Z,99.90
2022-07-28T04:03:35.798Z,99.80
2022-07-28T04:06:08.570Z,99.40
2022-07-28T04:08:36.800Z,99.30
2022-07-28T04:11:05.046Z,98.90
2022-07-28T04:13:33.570Z,99.60
2022-07-28T04:16:02.085Z,98.80
2022-07-28T04:18:31.779Z,98.60
2022-07-28T04:21:00.197Z,98.40
2022-07-28T04:23:28.459Z,98.20
2022-07-28T04:25:56.672Z,98.50
2022-07-28T04:28:25.404Z,98.30
2022-07-28T04:30:53.661Z,98.40
2022-07-28T04:33:22.007Z,98.20
2022-07-28T04:35:52.863Z,97.80
2022-07-28T04:38:21.178Z,97.80
2022-07-28T04:40:50.066Z,97.40
2022-07-28T04:43:18.385Z,97.20
2022-07-28T04:45:53.812Z,97.10
2022-07-28T04:48:23.439Z,96.90
2022-07-28T04:50:53.695Z,97.10
2022-07-28T04:53:22.947Z,96.60
2022-07-28T04:55:54.807Z,96.40
2022-07-28T04:58:24.036Z,96.10
2022-07-28T05:00:52.792Z,95.70
2022-07-28T05:03:21.602Z,95.20
2022-07-28T05:05:54.457Z,95.00
2022-07-28T05:08:26.571Z,94.50
2022-07-28T05:10:56.314Z,94.80
2022-07-28T05:13:26.749Z,95.40
2022-07-28T05:15:57.505Z,94.80
2022-07-28T05:18:25.726Z,94.60
2022-07-28T05:20:53.948Z,94.20
2022-07-28T05:23:22.183Z,94.60
2022-07-28T05:25:52.076Z,94.10
2022-07-28T05:28:20.967Z,94.60
2022-07-28T05:30:49.202Z,93.90
2022-07-28T05:33:17.602Z,93.40
2022-07-28T05:35:51.761Z,93.10
2022-07-28T05:38:20.042Z,92.30
2022-07-28T05:40:49.025Z,91.30
2022-07-28T05:43:18.788Z,90.90
2022-07-28T05:45:47.733Z,90.60
2022-07-28T05:48:18.936Z,90.00
2022-07-28T05:50:47.935Z,88.90
2022-07-28T05:53:16.335Z,87.80
2022-07-28T05:56:00.657Z,88.80
2022-07-28T05:58:31.709Z,86.60
2022-07-28T06:01:01.245Z,85.20
2022-07-28T06:03:30.626Z,82.50
2022-07-28T06:06:15.197Z,82.50
2022-07-28T06:08:45.772Z,81.40
2022-07-28T06:11:22.184Z,79.20
2022-07-28T06:13:52.951Z,77.80
2022-07-28T06:16:23.045Z,76.30
2022-07-28T06:18:51.899Z,73.00
2022-07-28T06:21:20.238Z,72.40
2022-07-28T06:23:48.494Z,71.10
2022-07-28T06:26:17.047Z,68.50
2022-07-28T06:28:45.388Z,66.80
2022-07-28T06:31:15.021Z,66.00
2022-07-28T06:33:43.538Z,65.20
2022-07-28T06:36:11.803Z,64.70
2022-07-28T06:38:39.984Z,64.80
2022-07-28T06:41:08.357Z,63.90
2022-07-28T06:43:39.060Z,63.40
2022-07-28T06:46:07.843Z,62.40
2022-07-28T06:48:39.490Z,61.60
2022-07-28T06:51:08.044Z,60.90
2022-07-28T06:53:36.522Z,58.80
2022-07-28T06:56:06.175Z,58.70
2022-07-28T06:58:34.562Z,58.70
2022-07-28T07:01:07.780Z,58.90
2022-07-28T07:03:37.713Z,58.60
2022-07-28T07:06:05.957Z,60.00
2022-07-28T07:08:34.306Z,57.80
2022-07-28T07:11:02.592Z,57.60
2022-07-28T07:13:30.901Z,58.40
2022-07-28T07:15:59.206Z,57.20
2022-07-28T07:18:27.789Z,57.60
2022-07-28T07:20:58.160Z,56.40
2022-07-28T07:23:26.496Z,55.60
2022-07-28T07:25:55.057Z,56.00
2022-07-28T07:28:23.295Z,54.10
2022-07-28T07:30:51.552Z,53.90
2022-07-28T07:33:19.848Z,53.10
2022-07-28T07:35:48.670Z,54.90
2022-07-28T07:38:18.277Z,54.30
2022-07-28T07:40:46.568Z,53.20
2022-07-28T07:43:14.839Z,53.60
2022-07-28T07:45:43.067Z,54.50
2022-07-28T07:48:11.319Z,52.70
2022-07-28T07:50:39.653Z,52.50
2022-07-28T07:53:07.859Z,54.10
2022-07-28T07:55:38.797Z,52.00
2022-07-28T07:58:07.549Z,51.80
2022-07-28T08:00:35.902Z,52.30
2022-07-28T08:03:04.220Z,52.10
2022-07-28T08:05:39.574Z,50.70
2022-07-28T08:08:08.199Z,51.00
2022-07-28T08:10:38.628Z,50.10
2022-07-28T08:13:07.991Z,50.50
2022-07-28T08:15:36.611Z,49.90
2022-07-28T08:18:05.173Z,49.40
2022-07-28T08:20:33.634Z,49.30
2022-07-28T08:23:01.818Z,49.30
2022-07-28T08:25:30.018Z,48.20
2022-07-28T08:27:59.704Z,47.00
2022-07-28T08:30:32.389Z,48.30
2022-07-28T08:33:03.145Z,48.00
2022-07-28T08:35:33.998Z,48.40
2022-07-28T08:38:03.205Z,47.70
2022-07-28T08:40:32.802Z,48.50
2022-07-28T08:43:05.350Z,45.90
2022-07-28T08:45:37.348Z,44.50
2022-07-28T08:48:09.618Z,44.60
2022-07-28T08:50:39.504Z,45.30
2022-07-28T08:53:08.717Z,44.50
2022-07-28T08:55:37.968Z,43.40
2022-07-28T08:58:08.585Z,44.20
2022-07-28T09:00:36.961Z,45.20
2022-07-28T09:03:06.402Z,43.60
2022-07-28T09:05:35.455Z,44.40
2022-07-28T09:08:04.345Z,42.80
2022-07-28T09:10:32.689Z,42.50
2022-07-28T09:13:01.069Z,42.60
2022-07-28T09:15:32.788Z,43.10
2022-07-28T09:18:01.821Z,42.10
2022-07-28T09:20:30.495Z,42.80
2022-07-28T09:23:01.423Z,42.10
2022-07-28T09:25:30.593Z,41.40
2022-07-28T09:28:07.567Z,44.60
2022-07-28T09:30:47.321Z,42.00
2022-07-28T09:33:43.076Z,43.00
2022-07-28T09:36:16.461Z,42.90
2022-07-28T09:38:45.065Z,40.90
2022-07-28T09:41:13.288Z,40.50
2022-07-28T09:43:43.477Z,40.70
2022-07-28T09:46:14.448Z,41.60
2022-07-28T09:48:56.565Z,40.50
2022-07-28T09:51:27.670Z,40.40
2022-07-28T09:54:08.550Z,40.40
2022-07-28T09:56:37.168Z,42.40
2022-07-28T09:59:05.656Z,41.00
2022-07-28T10:01:52.103Z,40.60
2022-07-28T10:04:31.819Z,40.20
2022-07-28T10:07:05.586Z,40.60
2022-07-28T10:09:34.495Z,40.50
2022-07-28T10:12:20.155Z,39.50
2022-07-28T10:14:49.073Z,40.00
2022-07-28T10:17:30.406Z,38.90
2022-07-28T10:20:00.404Z,42.20
2022-07-28T10:22:33.122Z,40.70
2022-07-28T10:25:03.479Z,41.80
2022-07-28T10:27:32.707Z,41.50
2022-07-28T10:30:02.924Z,40.40
2022-07-28T10:32:46.763Z,41.10
2022-07-28T10:35:16.868Z,38.80
2022-07-28T10:37:50.482Z,39.00
2022-07-28T10:40:22.098Z,38.40
2022-07-28T10:42:50.462Z,38.20
2022-07-28T10:45:18.843Z,38.20
2022-07-28T10:47:49.350Z,38.10
2022-07-28T10:50:18.144Z,39.40
2022-07-28T10:52:50.005Z,38.60
2022-07-28T10:55:31.643Z,37.90
2022-07-28T10:58:11.183Z,36.50
2022-07-28T11:00:56.084Z,37.60
2022-07-28T11:03:40.969Z,36.70
2022-07-28T11:06:29.997Z,37.10
2022-07-28T11:08:59.707Z,39.20
2022-07-28T11:11:47.937Z,38.70
2022-07-28T11:14:37.744Z,36.40
2022-07-28T11:17:24.460Z,36.50
2022-07-28T11:22:52.276Z,37.60
2022-07-28T11:25:22.751Z,38.10
2022-07-28T11:28:06.505Z,39.60
2022-07-28T11:30:55.598Z,38.80
2022-07-28T11:33:25.155Z,39.80
2022-07-28T11:36:05.722Z,39.00
2022-07-28T11:38:33.991Z,38.90
2022-07-28T11:41:02.186Z,38.00
2022-07-28T11:43:41.099Z,40.20
2022-07-28T11:46:38.615Z,38.60
2022-07-28T11:49:31.107Z,38.00
2022-07-28T11:52:23.418Z,36.60
2022-07-28T11:54:57.672Z,37.20
2022-07-28T11:57:29.573Z,35.60
2022-07-28T12:00:01.305Z,35.80
2022-07-28T12:02:32.120Z,34.30
2022-07-28T12:05:12.991Z,34.90
2022-07-28T12:07:48.599Z,34.70
2022-07-28T12:13:27.055Z,37.90
2022-07-28T12:15:55.343Z,37.30
2022-07-28T12:18:24.884Z,38.10
2022-07-28T12:20:54.796Z,35.10
2022-07-28T12:23:34.894Z,35.20
2022-07-28T12:26:07.646Z,35.30
2022-07-28T12:28:39.794Z,35.50
2022-07-28T12:31:14.956Z,34.10
2022-07-28T12:33:43.395Z,34.40
2022-07-28T12:36:11.870Z,37.10
2022-07-28T12:38:41.534Z,37.80
2022-07-28T12:41:15.875Z,37.70
2022-07-28T12:43:51.335Z,34.90
2022-07-28T12:46:25.148Z,35.40
2022-07-28T12:48:57.975Z,34.60
2022-07-28T12:51:37.079Z,33.70
2022-07-28T12:54:08.099Z,36.00
2022-07-28T12:56:46.489Z,36.90
2022-07-28T12:59:15.059Z,36.80
2022-07-28T13:01:51.524Z,35.30
2022-07-28T13:04:40.609Z,36.50
2022-07-28T13:07:13.026Z,38.00
2022-07-28T13:09:53.187Z,34.80
2022-07-28T13:12:30.838Z,34.30
2022-07-28T13:15:01.488Z,36.70
2022-07-28T13:17:49.008Z,37.00
2022-07-28T13:20:18.832Z,37.70
2022-07-28T13:22:47.242Z,38.60
2022-07-28T13:25:17.051Z,38.70
2022-07-28T13:27:45.295Z,38.80
2022-07-28T13:30:14.267Z,39.00
2022-07-28T13:32:42.532Z,37.40
2022-07-28T13:35:14.997Z,39.50
2022-07-28T13:37:43.941Z,38.70
2022-07-28T13:40:13.052Z,39.30
2022-07-28T13:42:52.920Z,38.80
2022-07-28T13:45:25.215Z,40.10
2022-07-28T13:47:58.313Z,39.80
2022-07-28T13:50:27.292Z,39.20
2022-07-28T13:52:55.508Z,37.80
2022-07-28T13:55:24.018Z,38.70
2022-07-28T13:57:56.799Z,39.70
2022-07-28T14:00:25.651Z,40.60
2022-07-28T14:02:54.007Z,40.30
2022-07-28T14:05:22.283Z,38.90
2022-07-28T14:07:51.115Z,39.50
2022-07-28T14:10:19.522Z,38.00
2022-07-28T14:12:47.748Z,37.50
2022-07-28T14:15:17.733Z,37.30
2022-07-28T14:17:46.580Z,37.90
2022-07-28T14:20:15.944Z,38.30
2022-07-28T14:22:46.566Z,38.90
2022-07-28T14:25:20.522Z,39.60
2022-07-28T14:27:50.786Z,39.20
2022-07-28T14:30:21.295Z,40.20
2022-07-28T14:32:50.010Z,40.10
2022-07-28T14:35:18.265Z,39.60
2022-07-28T14:38:23.534Z,41.30
2022-07-28T14:40:39.507Z,39.80
2022-07-28T14:43:09.287Z,40.40
2022-07-28T14:45:51.243Z,41.60
2022-07-28T14:48:27.315Z,40.90
2022-07-28T14:50:57.215Z,39.30
2022-07-28T14:53:28.056Z,37.30
2022-07-28T14:55:56.853Z,38.70
2022-07-28T14:58:25.848Z,36.90
2022-07-28T15:00:55.964Z,37.20
2022-07-28T15:03:30.673Z,37.70
2022-07-28T15:06:02.838Z,37.10
2022-07-28T15:08:31.072Z,38.30
2022-07-28T15:10:59.318Z,39.20
2022-07-28T15:13:27.807Z,39.80
2022-07-28T15:16:00.244Z,40.40
2022-07-28T15:18:28.888Z,39.50
2022-07-28T15:20:57.223Z,39.90
2022-07-28T15:23:25.698Z,40.00
2022-07-28T15:25:56.105Z,38.90
2022-07-28T15:28:24.378Z,38.50
2022-07-28T15:30:53.029Z,38.90
2022-07-28T15:33:24.103Z,38.60
2022-07-28T15:35:58.114Z,40.10
2022-07-28T15:38:29.223Z,41.00
2022-07-28T15:40:59.107Z,41.00
2022-07-28T15:43:27.550Z,41.70
2022-07-28T15:45:57.415Z,42.20
2022-07-28T15:48:27.199Z,42.10
2022-07-28T15:50:55.512Z,42.50
2022-07-28T15:53:23.806Z,42.20
2022-07-28T15:55:52.137Z,42.40
2022-07-28T15:58:21.081Z,42.60
2022-07-28T16:00:49.632Z,42.80
2022-07-28T16:03:17.987Z,42.80
2022-07-28T16:05:49.928Z,42.60
2022-07-28T16:08:22.332Z,42.90
2022-07-28T16:10:52.661Z,43.40
2022-07-28T16:13:31.485Z,43.20
2022-07-28T16:16:06.988Z,43.20
2022-07-28T16:18:36.556Z,43.50
2022-07-28T16:21:07.414Z,43.20
2022-07-28T16:23:35.980Z,43.40
2022-07-28T16:26:07.964Z,43.30
2022-07-28T16:28:36.575Z,43.60
2022-07-28T16:31:04.881Z,43.60
2022-07-28T16:33:34.078Z,43.50
2022-07-28T16:36:02.655Z,43.90
2022-07-28T16:38:32.402Z,43.70
2022-07-28T16:41:00.640Z,45.30
2022-07-28T16:43:29.382Z,43.90
2022-07-28T16:45:57.910Z,44.40
2022-07-28T16:48:26.161Z,43.90
2022-07-28T16:50:54.811Z,44.40
2022-07-28T16:53:23.248Z,44.00
2022-07-28T16:55:52.873Z,44.60
2022-07-28T16:58:22.269Z,44.90
2022-07-28T17:00:51.110Z,45.10
2022-07-28T17:03:19.393Z,45.30
2022-07-28T17:05:48.602Z,45.70
2022-07-28T17:08:16.904Z,45.60
2022-07-28T17:10:45.620Z,45.70
2022-07-28T17:13:16.894Z,45.90
2022-07-28T17:15:45.355Z,45.90
2022-07-28T17:18:13.694Z,45.90
2022-07-28T17:20:46.913Z,46.40
2022-07-28T17:23:15.148Z,46.80
2022-07-28T17:25:59.557Z,47.10
2022-07-28T17:28:33.115Z,47.20
2022-07-28T17:31:01.764Z,46.80
2022-07-28T17:33:31.299Z,46.80
2022-07-28T17:35:59.731Z,46.90
2022-07-28T17:38:33.016Z,47.30
2022-07-28T17:41:04.172Z,46.60
2022-07-28T17:43:34.950Z,47.20
2022-07-28T17:46:08.252Z,47.10
2022-07-28T17:48:39.105Z,47.60
2022-07-28T17:51:07.725Z,47.40
2022-07-28T17:53:38.460Z,47.80
2022-07-28T17:56:08.852Z,47.80
2022-07-28T17:58:39.926Z,47.60
2022-07-28T18:01:12.443Z,47.80
2022-07-28T18:03:57.770Z,47.90
2022-07-28T18:06:29.795Z,47.70
2022-07-28T18:09:04.828Z,48.80
2022-07-28T18:11:56.736Z,47.90
2022-07-28T18:14:28.940Z,48.20
2022-07-28T18:16:57.359Z,48.00
2022-07-28T18:19:25.786Z,48.60
2022-07-28T18:21:54.054Z,48.30
2022-07-28T18:24:22.989Z,48.70
2022-07-28T18:26:51.830Z,48.60
2022-07-28T18:29:21.631Z,48.60
2022-07-28T18:31:52.063Z,49.10
2022-07-28T18:34:24.678Z,49.10
2022-07-28T18:36:53.446Z,49.00
2022-07-28T18:39:22.145Z,49.30
2022-07-28T18:41:50.275Z,49.20
2022-07-28T18:44:19.522Z,49.50
2022-07-28T18:46:48.432Z,49.70
2022-07-28T18:49:18.188Z,49.90
2022-07-28T18:51:46.433Z,50.20
2022-07-28T18:54:25.145Z,50.20
2022-07-28T18:56:56.400Z,50.40
2022-07-28T18:59:25.003Z,50.20
2022-07-28T19:01:53.322Z,50.40
2022-07-28T19:04:23.054Z,50.50
2022-07-28T19:06:51.764Z,50.50
2022-07-28T19:09:20.090Z,50.70
2022-07-28T19:11:48.312Z,51.00
2022-07-28T19:14:17.791Z,51.20
2022-07-28T19:16:46.282Z,51.50
2022-07-28T19:19:15.184Z,51.60
2022-07-28T19:21:44.889Z,52.20
2022-07-28T19:24:14.139Z,52.50
2022-07-28T19:26:44.302Z,53.10
2022-07-28T19:29:12.528Z,53.20
2022-07-28T19:31:41.557Z,53.30
2022-07-28T19:34:10.559Z,54.00
2022-07-28T19:36:40.429Z,54.00
2022-07-28T19:39:10.802Z,54.10
2022-07-28T19:41:39.064Z,54.50
2022-07-28T19:44:07.741Z,54.60
2022-07-28T19:46:36.151Z,55.10
2022-07-28T19:49:07.907Z,54.60
2022-07-28T19:51:36.903Z,55.00
2022-07-28T19:54:05.469Z,55.20
2022-07-28T19:56:35.295Z,55.20
2022-07-28T19:59:03.585Z,55.90
2022-07-28T20:01:32.053Z,55.30
2022-07-28T20:04:04.863Z,55.80
2022-07-28T20:06:34.504Z,56.20
2022-07-28T20:09:03.239Z,56.00
2022-07-28T20:11:32.935Z,56.50
2022-07-28T20:14:03.634Z,56.60
2022-07-28T20:16:31.974Z,56.20
2022-07-28T20:19:00.270Z,55.90
2022-07-28T20:21:28.798Z,56.10
2022-07-28T20:24:06.897Z,56.00
2022-07-28T20:26:35.551Z,56.80
2022-07-28T20:29:06.004Z,56.30
2022-07-28T20:31:34.446Z,56.20
2022-07-28T20:34:06.642Z,56.70
2022-07-28T20:36:35.561Z,56.30
2022-07-28T20:39:21.030Z,56.50
2022-07-28T20:41:52.022Z,57.00
2022-07-28T20:44:29.939Z,56.70
2022-07-28T20:47:00.802Z,56.90
2022-07-28T20:49:29.352Z,56.80
2022-07-28T20:51:57.873Z,56.40
2022-07-28T20:54:26.281Z,56.90
2022-07-28T20:56:54.654Z,56.20
2022-07-28T20:59:27.694Z,56.40
2022-07-28T21:01:56.592Z,56.60
2022-07-28T21:04:24.963Z,56.60
2022-07-28T21:07:01.571Z,56.40
2022-07-28T21:09:30.303Z,56.00
2022-07-28T21:11:58.541Z,55.80
2022-07-28T21:14:28.303Z,56.10
2022-07-28T21:16:56.693Z,55.50
2022-07-28T21:19:24.977Z,55.70
2022-07-28T21:21:53.354Z,55.20
2022-07-28T21:24:21.557Z,56.00
2022-07-28T21:26:51.648Z,56.10
2022-07-28T21:32:02.172Z,55.50
2022-07-28T21:34:34.869Z,55.90
2022-07-28T21:37:03.459Z,55.50
2022-07-28T21:39:32.018Z,55.50
2022-07-28T21:42:00.665Z,56.80
2022-07-28T21:44:28.851Z,55.90
2022-07-28T21:46:58.516Z,55.70
2022-07-28T21:49:28.721Z,56.10
2022-07-28T21:51:56.953Z,55.60
2022-07-28T21:54:25.248Z,55.80
2022-07-28T21:56:53.544Z,56.00
2022-07-28T21:59:21.741Z,55.60
2022-07-28T22:01:50.043Z,55.50
2022-07-28T22:04:20.271Z,55.60
2022-07-28T22:06:48.738Z,55.60
2022-07-28T22:09:16.995Z,55.30
2022-07-28T22:11:45.302Z,55.30
2022-07-28T22:14:14.035Z,55.10
2022-07-28T22:16:42.532Z,54.80
2022-07-28T22:19:12.548Z,55.00
2022-07-28T22:21:42.325Z,54.80
2022-07-28T22:24:10.667Z,54.90
2022-07-28T22:26:38.915Z,54.90
2022-07-28T22:29:07.125Z,54.70
2022-07-28T22:31:35.366Z,54.10
2022-07-28T22:34:03.961Z,54.30
2022-07-28T22:36:32.210Z,54.60
2022-07-28T22:39:01.875Z,54.60
2022-07-28T22:41:30.396Z,54.20
2022-07-28T22:43:58.572Z,54.60
2022-07-28T22:46:26.946Z,54.60
2022-07-28T22:48:56.560Z,54.70
2022-07-28T22:51:24.813Z,55.80
2022-07-28T22:53:53.308Z,54.90
2022-07-28T22:56:22.961Z,55.50
2022-07-28T22:58:51.348Z,55.00
2022-07-28T23:01:19.778Z,54.90
2022-07-28T23:03:48.623Z,55.50
2022-07-28T23:06:17.493Z,55.20
2022-07-28T23:08:45.692Z,55.20
2022-07-28T23:11:14.102Z,55.50
2022-07-28T23:13:43.681Z,55.10
2022-07-28T23:16:12.975Z,55.00
2022-07-28T23:18:41.347Z,55.20
2022-07-28T23:21:09.824Z,55.20
2022-07-28T23:23:38.625Z,55.30
2022-07-28T23:26:06.831Z,55.50
2022-07-28T23:28:36.284Z,55.50
2022-07-28T23:31:06.427Z,55.60
2022-07-28T23:33:55.376Z,55.90
2022-07-28T23:36:27.584Z,55.80
2022-07-28T23:38:56.689Z,55.20
2022-07-28T23:41:25.335Z,55.20
2022-07-28T23:43:53.627Z,55.80
2022-07-28T23:46:23.082Z,55.20
2022-07-28T23:48:51.839Z,55.50
2022-07-28T23:51:21.189Z,55.30
2022-07-28T23:53:54.298Z,55.30
2022-07-28T23:56:24.265Z,55.40
2022-07-28T23:58:52.251Z,55.70
